createdAt,value
2019-01-08T00:01:38.660Z,3.00
2019-01-08T00:03:49.481Z,2.97
2019-01-08T00:06:00.293Z,3.01
2019-01-08T00:08:11.112Z,2.99
2019-01-08T00:10:21.901Z,2.96
2019-01-08T00:12:32.729Z,3.00
2019-01-08T00:14:43.531Z,2.98
2019-01-08T00:16:54.347Z,2.96
2019-01-08T00:19:05.157Z,3.04
2019-01-08T00:21:15.954Z,3.02
2019-01-08T00:23:26.775Z,3.04
2019-01-08T00:25:37.584Z,3.03
2019-01-08T00:27:48.402Z,3.05
2019-01-08T00:29:59.295Z,3.06
2019-01-08T00:32:10.101Z,3.05
2019-01-08T00:34:20.926Z,3.05
2019-01-08T00:36:31.741Z,3.04
2019-01-08T00:38:42.692Z,3.06
2019-01-08T00:40:53.490Z,3.02
2019-01-08T00:43:04.288Z,3.01
2019-01-08T00:45:15.132Z,3.02
2019-01-08T00:47:26.007Z,3.08
2019-01-08T00:49:36.864Z,3.14
2019-01-08T00:51:47.667Z,3.15
2019-01-08T00:53:58.498Z,3.10
2019-01-08T00:56:09.299Z,3.12
2019-01-08T00:58:20.201Z,3.06
2019-01-08T01:00:31.017Z,3.09
2019-01-08T01:02:41.854Z,3.12
2019-01-08T01:04:52.623Z,3.09
2019-01-08T01:07:03.434Z,3.05
2019-01-08T01:09:14.221Z,3.07
2019-01-08T01:11:25.237Z,3.07
2019-01-08T01:13:36.028Z,3.06
2019-01-08T01:15:46.861Z,3.10
2019-01-08T01:17:57.663Z,3.10
2019-01-08T01:20:08.504Z,3.05
2019-01-08T01:22:19.301Z,3.05
2019-01-08T01:24:30.603Z,3.07
2019-01-08T01:26:41.445Z,3.10
2019-01-08T01:28:59.676Z,3.14
2019-01-08T01:31:04.986Z,3.14
2019-01-08T01:33:15.789Z,3.14
2019-01-08T01:35:26.594Z,3.15
2019-01-08T01:37:37.401Z,3.19
2019-01-08T01:39:48.198Z,3.11
2019-01-08T01:41:59.022Z,3.10
2019-01-08T01:44:09.849Z,3.11
2019-01-08T01:46:20.658Z,3.05
2019-01-08T01:48:31.573Z,3.12
2019-01-08T01:50:42.392Z,3.13
2019-01-08T01:52:53.217Z,3.10
2019-01-08T01:58:01.766Z,3.10
2019-01-08T02:00:14.544Z,3.16
2019-01-08T02:02:25.361Z,3.13
2019-01-08T02:04:56.057Z,3.11
2019-01-08T02:07:06.884Z,3.06
2019-01-08T02:09:17.775Z,3.08
2019-01-08T02:11:49.419Z,3.07
2019-01-08T02:14:00.224Z,3.15
2019-01-08T02:16:11.016Z,3.13
2019-01-08T02:18:21.812Z,3.17
2019-01-08T02:20:32.622Z,3.18
2019-01-08T02:34:11.443Z,3.20
2019-01-08T02:36:22.270Z,3.18
2019-01-08T02:38:33.226Z,3.20
2019-01-08T02:40:44.046Z,3.18
2019-01-08T02:42:54.874Z,3.17
2019-01-08T02:45:05.771Z,3.15
2019-01-08T02:47:16.660Z,3.11
2019-01-08T02:49:27.470Z,3.16
2019-01-08T02:51:38.297Z,3.18
2019-01-08T02:53:49.080Z,3.23
2019-01-08T02:55:59.895Z,3.21
2019-01-08T02:58:10.691Z,3.17
2019-01-08T03:00:21.506Z,3.20
2019-01-08T03:02:32.350Z,3.20
2019-01-08T03:04:43.177Z,3.17
2019-01-08T03:06:53.961Z,3.21
2019-01-08T03:09:26.538Z,3.22
2019-01-08T03:11:37.356Z,3.19
2019-01-08T03:13:48.156Z,3.25
2019-01-08T03:15:59.057Z,3.25
2019-01-08T03:18:09.874Z,3.23
2019-01-08T03:20:20.670Z,3.21
2019-01-08T03:22:31.476Z,3.25
2019-01-08T03:24:42.289Z,3.25
2019-01-08T03:26:53.194Z,3.23
2019-01-08T03:29:03.995Z,3.25
2019-01-08T03:31:14.803Z,3.24
2019-01-08T03:33:25.589Z,3.24
2019-01-08T03:35:36.376Z,3.26
2019-01-08T03:37:47.213Z,3.30
2019-01-08T03:39:58.000Z,3.34
2019-01-08T03:42:08.812Z,3.34
2019-01-08T03:44:19.620Z,3.35
2019-01-08T03:46:30.439Z,3.35
2019-01-08T03:48:41.236Z,3.40
2019-01-08T03:50:52.052Z,3.45
2019-01-08T03:53:02.879Z,3.47
2019-01-08T03:55:13.674Z,3.51
2019-01-08T03:57:24.484Z,3.56
2019-01-08T03:59:41.877Z,3.57
2019-01-08T04:01:47.982Z,3.56
2019-01-08T04:03:58.785Z,3.65
2019-01-08T04:06:09.687Z,3.66
2019-01-08T04:08:20.498Z,3.69
2019-01-08T04:10:31.284Z,3.75
2019-01-08T04:12:42.111Z,3.76
2019-01-08T04:14:52.909Z,3.80
2019-01-08T04:17:03.719Z,3.82
2019-01-08T04:19:14.527Z,3.89
2019-01-08T04:21:25.314Z,3.87
2019-01-08T04:23:36.150Z,3.94
2019-01-08T04:25:46.960Z,3.97
2019-01-08T04:27:57.777Z,4.02
2019-01-08T04:30:08.699Z,4.00
2019-01-08T04:32:19.496Z,4.00
2019-01-08T04:34:30.303Z,4.00
2019-01-08T04:36:41.099Z,4.02
2019-01-08T04:38:51.914Z,4.03
2019-01-08T04:41:02.703Z,4.06
2019-01-08T04:43:13.500Z,4.10
2019-01-08T04:45:24.320Z,4.16
2019-01-08T04:47:35.130Z,4.17
2019-01-08T04:49:45.936Z,4.16
2019-01-08T04:51:56.734Z,4.16
2019-01-08T04:54:07.549Z,4.10
2019-01-08T04:56:18.346Z,4.14
2019-01-08T04:58:29.140Z,4.18
2019-01-08T05:00:40.053Z,4.19
2019-01-08T05:02:50.846Z,4.13
2019-01-08T05:05:01.658Z,4.13
2019-01-08T05:09:31.371Z,4.22
2019-01-08T05:11:42.166Z,4.23
2019-01-08T05:13:52.974Z,4.18
2019-01-08T05:16:03.808Z,4.20
2019-01-08T05:18:14.612Z,4.24
2019-01-08T05:20:25.431Z,4.26
2019-01-08T05:22:36.230Z,4.26
2019-01-08T05:24:47.013Z,4.27
2019-01-08T05:26:57.848Z,4.27
2019-01-08T05:29:08.648Z,4.23
2019-01-08T05:31:19.466Z,4.21
2019-01-08T05:33:30.278Z,4.21
2019-01-08T05:35:41.100Z,4.25
2019-01-08T05:37:51.934Z,4.26
2019-01-08T05:40:44.397Z,4.26
2019-01-08T05:42:55.194Z,4.25
2019-01-08T05:45:06.002Z,4.23
2019-01-08T05:47:16.806Z,4.22
2019-01-08T05:49:27.621Z,4.18
2019-01-08T05:51:38.444Z,4.18
2019-01-08T05:53:49.231Z,4.17
2019-01-08T05:56:00.042Z,4.19
2019-01-08T05:58:10.863Z,4.17
2019-01-08T06:00:21.665Z,4.16
2019-01-08T06:02:32.481Z,4.15
2019-01-08T06:04:43.285Z,4.14
2019-01-08T06:06:54.070Z,4.16
2019-01-08T06:09:04.895Z,4.11
2019-01-08T06:11:15.685Z,4.11
2019-01-08T06:13:26.521Z,4.11
2019-01-08T06:15:37.332Z,4.11
2019-01-08T06:17:48.125Z,4.08
2019-01-08T06:19:58.955Z,4.10
2019-01-08T06:22:09.754Z,4.07
2019-01-08T06:24:20.583Z,4.12
2019-01-08T06:26:31.398Z,4.12
2019-01-08T06:28:42.215Z,4.13
2019-01-08T06:30:53.014Z,4.10
2019-01-08T06:33:03.806Z,4.12
2019-01-08T06:35:14.611Z,4.12
2019-01-08T06:37:25.424Z,4.13
2019-01-08T06:39:36.221Z,4.16
2019-01-08T06:41:47.006Z,4.16
2019-01-08T06:43:57.833Z,4.16
2019-01-08T06:46:08.649Z,4.17
2019-01-08T06:48:19.456Z,4.18
2019-01-08T06:50:30.366Z,4.21
2019-01-08T06:52:41.155Z,4.24
2019-01-08T06:54:52.071Z,4.22
2019-01-08T06:57:02.853Z,4.33
2019-01-08T06:59:13.654Z,4.45
2019-01-08T07:01:24.469Z,4.48
2019-01-08T07:03:35.289Z,4.46
2019-01-08T07:05:46.107Z,4.44
2019-01-08T07:07:56.921Z,4.44
2019-01-08T07:10:07.745Z,4.42
2019-01-08T07:12:18.575Z,4.43
2019-01-08T07:14:29.380Z,4.45
2019-01-08T07:16:40.191Z,4.46
2019-01-08T07:18:50.977Z,4.49
2019-01-08T07:21:01.761Z,4.49
2019-01-08T07:23:12.562Z,4.50
2019-01-08T07:25:23.378Z,4.51
2019-01-08T07:27:34.202Z,4.54
2019-01-08T07:29:45.002Z,4.54
2019-01-08T07:31:55.806Z,4.56
2019-01-08T07:34:06.621Z,4.55
2019-01-08T07:36:17.414Z,4.54
2019-01-08T07:38:28.228Z,4.54
2019-01-08T07:40:39.027Z,4.53
2019-01-08T07:42:49.853Z,4.48
2019-01-08T07:45:00.656Z,4.50
2019-01-08T07:47:11.474Z,4.49
2019-01-08T07:49:22.287Z,4.58
2019-01-08T07:51:33.099Z,4.62
2019-01-08T07:53:43.913Z,4.57
2019-01-08T07:55:54.735Z,4.62
2019-01-08T07:58:05.561Z,4.64
2019-01-08T08:00:16.384Z,4.65
2019-01-08T08:02:27.227Z,4.68
2019-01-08T08:04:38.022Z,4.69
2019-01-08T08:06:48.817Z,4.70
2019-01-08T08:08:59.630Z,4.77
2019-01-08T08:11:10.422Z,4.75
2019-01-08T08:13:21.254Z,4.80
2019-01-08T08:15:32.074Z,4.85
2019-01-08T08:17:42.909Z,4.87
2019-01-08T08:19:53.725Z,4.96
2019-01-08T08:22:04.518Z,5.05
2019-01-08T08:24:15.366Z,5.11
2019-01-08T08:26:26.200Z,5.16
2019-01-08T08:28:37.004Z,5.20
2019-01-08T08:30:47.804Z,5.27
2019-01-08T08:32:58.591Z,5.34
2019-01-08T08:35:09.427Z,5.39
2019-01-08T08:37:20.221Z,5.41
2019-01-08T08:39:31.043Z,5.46
2019-01-08T08:41:41.837Z,5.52
2019-01-08T08:43:52.661Z,5.53
2019-01-08T08:46:03.460Z,5.56
2019-01-08T08:48:14.273Z,5.57
2019-01-08T08:50:25.100Z,5.59
2019-01-08T08:52:35.910Z,5.65
2019-01-08T08:54:46.739Z,5.68
2019-01-08T08:56:57.538Z,5.65
2019-01-08T08:59:08.358Z,5.63
2019-01-08T09:01:19.210Z,5.63
2019-01-08T09:03:30.005Z,5.66
2019-01-08T09:05:40.839Z,5.59
2019-01-08T09:07:51.630Z,5.61
2019-01-08T09:10:44.130Z,5.61
2019-01-08T09:12:54.958Z,5.59
2019-01-08T09:15:05.864Z,5.51
2019-01-08T09:17:16.721Z,5.56
2019-01-08T09:19:27.533Z,5.65
2019-01-08T09:21:38.312Z,5.93
2019-01-08T09:23:49.102Z,6.16
2019-01-08T09:25:59.946Z,6.34
2019-01-08T09:28:10.851Z,6.43
2019-01-08T09:30:21.678Z,6.48
2019-01-08T09:32:32.463Z,6.48
2019-01-08T09:34:50.022Z,6.41
2019-01-08T09:37:00.856Z,6.36
2019-01-08T09:39:11.666Z,6.27
2019-01-08T09:41:22.504Z,6.28
2019-01-08T09:43:33.316Z,6.13
2019-01-08T09:45:44.225Z,6.12
2019-01-08T09:47:55.045Z,6.09
2019-01-08T09:50:47.511Z,6.06
2019-01-08T09:52:58.316Z,6.03
2019-01-08T09:55:09.107Z,6.22
2019-01-08T09:57:19.940Z,6.38
2019-01-08T09:59:30.748Z,6.60
2019-01-08T10:01:41.582Z,6.67
2019-01-08T10:03:52.385Z,6.76
2019-01-08T10:06:03.185Z,6.78
2019-01-08T10:08:14.006Z,6.81
2019-01-08T10:10:24.851Z,6.89
2019-01-08T10:12:35.729Z,6.96
2019-01-08T10:14:46.538Z,7.13
2019-01-08T10:16:57.353Z,7.34
2019-01-08T10:19:08.179Z,7.58
2019-01-08T10:21:18.983Z,7.63
2019-01-08T10:23:29.834Z,7.63
2019-01-08T10:25:40.644Z,7.58
2019-01-08T10:27:51.493Z,7.51
2019-01-08T10:30:24.063Z,7.34
2019-01-08T10:32:34.852Z,7.21
2019-01-08T10:34:45.668Z,7.07
2019-01-08T10:36:56.470Z,6.96
2019-01-08T10:39:07.296Z,6.92
2019-01-08T10:41:18.103Z,6.89
2019-01-08T10:43:28.924Z,6.97
2019-01-08T10:45:39.718Z,7.06
2019-01-08T10:47:50.514Z,7.13
2019-01-08T10:50:01.478Z,7.20
2019-01-08T10:52:12.293Z,7.17
2019-01-08T10:54:23.109Z,7.15
2019-01-08T10:56:33.913Z,7.22
2019-01-08T10:58:44.740Z,7.26
2019-01-08T11:00:55.566Z,7.35
2019-01-08T11:03:06.342Z,7.45
2019-01-08T11:05:17.168Z,7.44
2019-01-08T11:07:28.016Z,7.43
2019-01-08T11:09:38.928Z,7.46
2019-01-08T11:11:49.733Z,7.52
2019-01-08T11:14:00.540Z,7.46
2019-01-08T11:16:11.368Z,7.44
2019-01-08T11:18:22.174Z,7.39
2019-01-08T11:20:32.988Z,7.30
2019-01-08T11:22:43.791Z,7.29
2019-01-08T11:24:54.636Z,7.27
2019-01-08T11:27:05.445Z,7.25
2019-01-08T11:29:16.345Z,7.24
2019-01-08T11:31:27.167Z,7.25
2019-01-08T11:33:37.965Z,7.26
2019-01-08T11:35:48.792Z,7.30
2019-01-08T11:37:59.611Z,7.28
2019-01-08T11:40:10.419Z,7.21
2019-01-08T11:42:21.234Z,7.15
2019-01-08T11:44:32.020Z,7.09
2019-01-08T11:46:42.840Z,7.07
2019-01-08T11:48:53.743Z,7.09
2019-01-08T11:51:04.619Z,7.47
2019-01-08T11:53:15.424Z,7.81
2019-01-08T11:55:26.246Z,8.10
2019-01-08T11:57:37.057Z,8.13
2019-01-08T11:59:48.336Z,7.75
2019-01-08T12:04:22.911Z,7.47
2019-01-08T12:06:33.739Z,7.29
2019-01-08T12:08:44.566Z,7.19
2019-01-08T12:10:55.469Z,7.17
2019-01-08T12:13:06.291Z,7.11
2019-01-08T12:15:17.139Z,7.05
2019-01-08T12:17:27.912Z,7.08
2019-01-08T12:19:38.745Z,7.02
2019-01-08T12:21:49.589Z,6.94
2019-01-08T12:24:00.386Z,6.85
2019-01-08T12:26:11.181Z,6.89
2019-01-08T12:28:22.031Z,6.86
2019-01-08T12:30:32.849Z,6.89
2019-01-08T12:32:43.698Z,6.94
2019-01-08T12:34:54.493Z,7.03
2019-01-08T12:37:05.290Z,7.13
2019-01-08T12:39:16.140Z,7.32
2019-01-08T12:41:26.937Z,7.46
2019-01-08T12:43:37.784Z,7.48
2019-01-08T12:45:48.590Z,7.44
2019-01-08T12:47:59.392Z,7.39
2019-01-08T12:50:10.259Z,7.34
2019-01-08T12:52:21.052Z,7.30
2019-01-08T12:54:31.913Z,7.25
2019-01-08T12:56:42.681Z,7.23
2019-01-08T12:58:53.508Z,7.21
2019-01-08T13:01:04.326Z,7.18
2019-01-08T13:03:15.153Z,7.12
2019-01-08T13:05:25.957Z,7.09
2019-01-08T13:07:36.771Z,7.08
2019-01-08T13:09:47.614Z,7.08
2019-01-08T13:11:58.412Z,7.00
2019-01-08T13:14:09.225Z,6.96
2019-01-08T13:16:20.007Z,6.96
2019-01-08T13:18:30.817Z,6.92
2019-01-08T13:20:41.620Z,6.86
2019-01-08T13:22:52.410Z,6.84
2019-01-08T13:27:42.134Z,6.84
2019-01-08T13:29:52.985Z,6.79
2019-01-08T13:32:03.779Z,6.66
2019-01-08T13:34:14.597Z,6.61
2019-01-08T13:36:25.401Z,6.60
2019-01-08T13:38:36.208Z,6.50
2019-01-08T13:40:47.030Z,6.42
2019-01-08T13:42:57.820Z,6.34
2019-01-08T13:45:08.640Z,6.30
2019-01-08T13:47:19.452Z,6.21
2019-01-08T13:49:30.265Z,6.09
2019-01-08T13:51:41.083Z,6.04
2019-01-08T13:53:51.878Z,6.00
2019-01-08T13:56:02.824Z,5.99
2019-01-08T13:58:13.620Z,5.94
2019-01-08T14:00:24.413Z,5.96
2019-01-08T14:02:35.238Z,5.90
2019-01-08T14:04:46.051Z,5.88
2019-01-08T14:06:56.874Z,5.86
2019-01-08T14:09:07.686Z,5.86
2019-01-08T14:11:18.507Z,5.79
2019-01-08T14:13:29.330Z,5.80
2019-01-08T14:15:40.127Z,5.83
2019-01-08T14:17:50.975Z,5.87
2019-01-08T14:20:01.986Z,5.92
2019-01-08T14:22:12.794Z,5.95
2019-01-08T14:24:23.601Z,5.95
2019-01-08T14:26:34.408Z,5.95
2019-01-08T14:28:45.273Z,5.99
2019-01-08T14:30:56.074Z,5.94
2019-01-08T14:33:06.917Z,5.95
2019-01-08T14:35:17.721Z,5.95
2019-01-08T14:37:50.443Z,5.90
2019-01-08T14:42:53.597Z,5.94
2019-01-08T14:45:04.498Z,5.93
2019-01-08T14:47:17.387Z,5.92
2019-01-08T14:49:28.050Z,5.88
2019-01-08T14:51:38.841Z,5.79
2019-01-08T14:53:49.692Z,5.76
2019-01-08T14:56:00.498Z,5.72
2019-01-08T14:58:11.348Z,5.67
2019-01-08T15:00:22.242Z,5.69
2019-01-08T15:02:33.070Z,5.75
2019-01-08T15:04:43.940Z,5.73
2019-01-08T15:06:54.728Z,5.71
2019-01-08T15:09:05.667Z,5.74
2019-01-08T15:11:16.480Z,5.73
2019-01-08T15:13:27.272Z,5.75
2019-01-08T15:15:38.111Z,5.76
2019-01-08T15:17:48.923Z,5.76
2019-01-08T15:19:59.747Z,5.69
2019-01-08T15:22:10.578Z,5.69
2019-01-08T15:24:21.400Z,5.65
2019-01-08T15:26:32.208Z,5.72
2019-01-08T15:28:43.025Z,5.70
2019-01-08T15:30:53.852Z,5.71
2019-01-08T15:33:04.779Z,5.70
2019-01-08T15:35:15.594Z,5.69
2019-01-08T15:37:26.401Z,5.68
2019-01-08T15:39:37.248Z,5.69
2019-01-08T15:41:48.046Z,5.72
2019-01-08T15:43:58.866Z,5.72
2019-01-08T15:46:09.690Z,5.69
2019-01-08T15:48:20.529Z,5.70
2019-01-08T15:50:51.258Z,5.62
2019-01-08T15:53:02.074Z,5.62
2019-01-08T15:55:12.892Z,5.61
2019-01-08T15:57:23.757Z,5.64
2019-01-08T16:00:16.223Z,5.63
2019-01-08T16:02:27.056Z,5.58
2019-01-08T16:04:37.870Z,5.62
2019-01-08T16:06:48.802Z,5.62
2019-01-08T16:08:59.613Z,5.58
2019-01-08T16:11:10.451Z,5.57
2019-01-08T16:13:21.227Z,5.59
2019-01-08T16:15:32.030Z,5.62
2019-01-08T16:17:42.845Z,5.64
2019-01-08T16:19:53.647Z,5.65
2019-01-08T16:22:04.473Z,5.65
2019-01-08T16:24:15.257Z,5.62
2019-01-08T16:26:26.101Z,5.63
2019-01-08T16:28:37.000Z,5.63
2019-01-08T16:30:47.845Z,5.62
2019-01-08T16:32:58.666Z,5.60
2019-01-08T16:35:09.475Z,5.55
2019-01-08T16:37:20.335Z,5.47
2019-01-08T16:39:31.172Z,5.50
2019-01-08T16:41:41.954Z,5.47
2019-01-08T16:43:52.785Z,5.42
2019-01-08T16:46:03.597Z,5.40
2019-01-08T16:48:14.433Z,5.39
2019-01-08T16:50:25.332Z,5.39
2019-01-08T16:52:36.163Z,5.41
2019-01-08T16:54:46.960Z,5.43
2019-01-08T16:56:57.769Z,5.41
2019-01-08T16:59:08.607Z,5.36
2019-01-08T17:01:19.439Z,5.34
2019-01-08T17:03:30.273Z,5.34
2019-01-08T17:05:41.088Z,5.34
2019-01-08T17:07:51.929Z,5.33
2019-01-08T17:10:44.518Z,5.32
2019-01-08T17:12:55.359Z,5.29
2019-01-08T17:15:06.372Z,5.32
2019-01-08T17:17:17.177Z,5.28
2019-01-08T17:19:28.019Z,5.32
2019-01-08T17:21:38.827Z,5.35
2019-01-08T17:23:49.670Z,5.33
2019-01-08T17:26:00.489Z,5.28
2019-01-08T17:28:11.305Z,5.26
2019-01-08T17:30:22.171Z,5.26
2019-01-08T17:32:32.981Z,5.30
2019-01-08T17:34:43.832Z,5.25
2019-01-08T17:36:54.626Z,5.21
2019-01-08T17:39:05.570Z,5.23
2019-01-08T17:41:16.396Z,5.21
2019-01-08T17:43:33.422Z,5.22
2019-01-08T17:45:39.955Z,5.22
2019-01-08T17:47:50.770Z,5.21
2019-01-08T17:50:43.239Z,5.22
2019-01-08T17:52:54.062Z,5.20
2019-01-08T17:55:04.875Z,5.23
2019-01-08T17:57:15.681Z,5.25
2019-01-08T17:59:26.488Z,5.26
2019-01-08T18:02:18.955Z,5.24
2019-01-08T18:04:29.776Z,5.24
2019-01-08T18:06:40.615Z,5.22
2019-01-08T18:08:51.426Z,5.22
2019-01-08T18:11:02.300Z,5.17
2019-01-08T18:13:13.114Z,5.15
2019-01-08T18:15:24.009Z,5.16
2019-01-08T18:17:34.854Z,5.18
2019-01-08T18:19:45.666Z,5.20
2019-01-08T18:21:56.502Z,5.21
2019-01-08T18:24:07.334Z,5.20
2019-01-08T18:26:18.230Z,5.20
2019-01-08T18:28:29.172Z,5.23
2019-01-08T18:30:39.993Z,5.25
2019-01-08T18:32:50.822Z,5.25
2019-01-08T18:35:01.728Z,5.25
2019-01-08T18:37:12.549Z,5.24
2019-01-08T18:39:23.395Z,5.27
2019-01-08T18:41:34.354Z,5.28
2019-01-08T18:43:45.189Z,5.27
2019-01-08T18:45:56.117Z,5.32
2019-01-08T18:48:07.007Z,5.37
2019-01-08T18:50:17.797Z,5.29
2019-01-08T18:52:28.641Z,5.31
2019-01-08T18:54:39.469Z,5.35
2019-01-08T18:56:50.270Z,5.35
2019-01-08T18:59:01.163Z,5.33
2019-01-08T19:01:11.977Z,5.35
2019-01-08T19:03:22.877Z,5.33
2019-01-08T19:05:34.557Z,5.32
2019-01-08T19:07:46.590Z,5.33
2019-01-08T19:10:39.229Z,5.36
2019-01-08T19:12:50.063Z,5.36
2019-01-08T19:15:00.852Z,5.38
2019-01-08T19:17:11.667Z,5.38
2019-01-08T19:19:22.582Z,5.38
2019-01-08T19:21:33.400Z,5.36
2019-01-08T19:23:44.212Z,5.34
2019-01-08T19:25:55.062Z,5.34
2019-01-08T19:30:38.263Z,5.39
2019-01-08T19:32:49.128Z,5.38
2019-01-08T19:34:59.957Z,5.41
2019-01-08T19:37:10.783Z,5.36
2019-01-08T19:39:21.779Z,5.38
2019-01-08T19:41:32.649Z,5.36
2019-01-08T19:43:44.773Z,5.37
2019-01-08T19:45:56.200Z,5.29
2019-01-08T19:48:07.129Z,5.25
2019-01-08T19:52:40.360Z,5.16
2019-01-08T19:54:51.193Z,5.13
2019-01-08T19:57:02.046Z,5.14
2019-01-08T19:59:12.843Z,5.10
2019-01-08T20:01:23.671Z,5.06
2019-01-08T20:03:34.508Z,5.04
2019-01-08T20:05:45.344Z,5.07
2019-01-08T20:07:56.196Z,5.08
2019-01-08T20:10:07.111Z,5.07
2019-01-08T20:12:17.949Z,5.07
2019-01-08T20:14:28.870Z,5.07
2019-01-08T20:16:39.734Z,5.07
2019-01-08T20:18:50.544Z,5.03
2019-01-08T20:21:01.354Z,5.02
2019-01-08T20:23:12.267Z,5.07
2019-01-08T20:25:23.156Z,5.11
2019-01-08T20:27:33.941Z,5.10
2019-01-08T20:29:44.965Z,5.12
2019-01-08T20:31:55.736Z,5.11
2019-01-08T20:34:06.562Z,5.10
2019-01-08T20:36:17.499Z,5.12
2019-01-08T20:38:28.344Z,5.14
2019-01-08T20:40:39.167Z,5.16
2019-01-08T20:42:50.046Z,5.14
2019-01-08T20:45:00.845Z,5.14
2019-01-08T20:47:11.662Z,5.10
2019-01-08T20:49:22.585Z,5.13
2019-01-08T20:51:33.439Z,5.15
2019-01-08T20:53:44.277Z,5.16
2019-01-08T20:55:55.113Z,5.19
2019-01-08T20:58:05.949Z,5.20
2019-01-08T21:00:16.780Z,5.11
2019-01-08T21:02:27.593Z,5.12
2019-01-08T21:04:38.439Z,5.11
2019-01-08T21:06:49.235Z,5.10
2019-01-08T21:09:00.101Z,5.09
2019-01-08T21:11:10.976Z,5.07
2019-01-08T21:13:21.895Z,5.07
2019-01-08T21:15:32.737Z,5.02
2019-01-08T21:17:43.529Z,5.05
2019-01-08T21:19:54.397Z,5.04
2019-01-08T21:22:05.305Z,5.05
2019-01-08T21:24:16.175Z,5.10
2019-01-08T21:26:27.093Z,5.07
2019-01-08T21:28:37.949Z,5.08
2019-01-08T21:30:48.743Z,5.03
2019-01-08T21:32:59.590Z,5.03
2019-01-08T21:35:10.526Z,5.06
2019-01-08T21:37:21.358Z,5.08
2019-01-08T21:39:32.299Z,5.07
2019-01-08T21:41:43.124Z,5.06
2019-01-08T21:44:13.830Z,5.00
2019-01-08T21:46:24.665Z,5.00
2019-01-08T21:48:35.493Z,4.99
2019-01-08T21:50:46.311Z,5.00
2019-01-08T21:52:57.107Z,5.01
2019-01-08T21:55:07.961Z,5.02
2019-01-08T21:57:18.769Z,4.98
2019-01-08T21:59:29.596Z,4.98
2019-01-08T22:01:40.526Z,4.99
2019-01-08T22:03:51.426Z,4.96
2019-01-08T22:06:02.281Z,4.91
2019-01-08T22:08:13.080Z,4.89
2019-01-08T22:10:23.895Z,4.87
2019-01-08T22:12:34.799Z,4.85
2019-01-08T22:14:45.575Z,4.86
2019-01-08T22:16:56.411Z,4.84
2019-01-08T22:19:07.243Z,4.82
2019-01-08T22:21:18.096Z,4.82
2019-01-08T22:23:28.913Z,4.82
2019-01-08T22:25:39.741Z,4.81
2019-01-08T22:27:50.553Z,4.78
2019-01-08T22:30:01.390Z,4.76
2019-01-08T22:32:12.250Z,4.79
2019-01-08T22:34:23.070Z,4.83
2019-01-08T22:36:33.901Z,4.86
2019-01-08T22:38:44.709Z,4.86
2019-01-08T22:40:55.523Z,4.83
2019-01-08T22:43:06.371Z,4.84
2019-01-08T22:45:17.212Z,4.84
2019-01-08T22:47:28.027Z,4.83
2019-01-08T22:49:38.849Z,4.83
2019-01-08T22:51:49.766Z,4.84
2019-01-08T22:54:00.632Z,4.79
2019-01-08T22:56:11.524Z,4.79
2019-01-08T22:58:22.367Z,4.76
2019-01-08T23:03:05.656Z,4.74
2019-01-08T23:05:16.578Z,4.66
2019-01-08T23:07:27.471Z,4.70
2019-01-08T23:09:38.281Z,4.70
2019-01-08T23:11:49.078Z,4.67
2019-01-08T23:13:59.924Z,4.68
2019-01-08T23:16:10.716Z,4.67
2019-01-08T23:18:21.556Z,4.63
2019-01-08T23:20:32.388Z,4.68
2019-01-08T23:22:43.209Z,4.71
2019-01-08T23:24:54.075Z,4.67
2019-01-08T23:27:04.915Z,4.63
2019-01-08T23:29:15.847Z,4.65
2019-01-08T23:31:26.655Z,4.63
2019-01-08T23:33:37.460Z,4.64
2019-01-08T23:35:48.261Z,4.62
2019-01-08T23:37:59.065Z,4.64
2019-01-08T23:40:10.002Z,4.65
2019-01-08T23:42:20.833Z,4.64
2019-01-08T23:44:31.663Z,4.65
2019-01-08T23:46:42.479Z,4.65
2019-01-08T23:48:53.289Z,4.62
2019-01-08T23:51:04.205Z,4.62
2019-01-08T23:53:56.685Z,4.59
2019-01-08T23:56:07.493Z,4.56
2019-01-08T23:58:18.293Z,4.58
